sensor_id;sensor_type;location;lat;lon;timestamp;temperature;humidity
67364;HTU21D;54250;45.572;38.086;2022-08-25T00:01:19;22.94;49.11
67364;HTU21D;54250;45.572;38.086;2022-08-25T00:03:46;22.93;49.34
67364;HTU21D;54250;45.572;38.086;2022-08-25T00:06:12;22.90;49.30
67364;HTU21D;54250;45.572;38.086;2022-08-25T00:08:39;22.84;49.50
67364;HTU21D;54250;45.572;38.086;2022-08-25T00:11:13;22.80;49.66
67364;HTU21D;54250;45.572;38.086;2022-08-25T00:13:42;22.75;49.89
67364;HTU21D;54250;45.572;38.086;2022-08-25T00:16:12;22.69;49.89
67364;HTU21D;54250;45.572;38.086;2022-08-25T00:18:40;22.67;50.01
67364;HTU21D;54250;45.572;38.086;2022-08-25T00:21:07;22.66;50.14
67364;HTU21D;54250;45.572;38.086;2022-08-25T00:23:33;22.70;49.99
67364;HTU21D;54250;45.572;38.086;2022-08-25T00:26:01;22.68;50.07
67364;HTU21D;54250;45.572;38.086;2022-08-25T00:28:27;22.62;50.05
67364;HTU21D;54250;45.572;38.086;2022-08-25T00:30:55;22.60;50.19
67364;HTU21D;54250;45.572;38.086;2022-08-25T00:33:21;22.57;50.39
67364;HTU21D;54250;45.572;38.086;2022-08-25T00:35:47;22.50;50.34
67364;HTU21D;54250;45.572;38.086;2022-08-25T00:38:13;22.43;50.48
67364;HTU21D;54250;45.572;38.086;2022-08-25T00:40:42;22.39;50.63
67364;HTU21D;54250;45.572;38.086;2022-08-25T00:43:08;22.33;50.63
67364;HTU21D;54250;45.572;38.086;2022-08-25T00:45:34;22.31;50.72
67364;HTU21D;54250;45.572;38.086;2022-08-25T00:48:01;22.32;50.73
67364;HTU21D;54250;45.572;38.086;2022-08-25T00:50:28;22.34;50.76
67364;HTU21D;54250;45.572;38.086;2022-08-25T00:52:59;22.33;50.72
67364;HTU21D;54250;45.572;38.086;2022-08-25T00:55:30;22.27;50.85
67364;HTU21D;54250;45.572;38.086;2022-08-25T00:58:02;22.25;50.85
67364;HTU21D;54250;45.572;38.086;2022-08-25T01:00:35;22.28;50.81
67364;HTU21D;54250;45.572;38.086;2022-08-25T01:03:02;22.31;50.92
67364;HTU21D;54250;45.572;38.086;2022-08-25T01:05:29;22.23;50.95
67364;HTU21D;54250;45.572;38.086;2022-08-25T01:07:57;22.13;51.21
67364;HTU21D;54250;45.572;38.086;2022-08-25T01:10:25;22.08;51.43
67364;HTU21D;54250;45.572;38.086;2022-08-25T01:12:54;22.04;51.50
67364;HTU21D;54250;45.572;38.086;2022-08-25T01:15:23;21.94;51.84
67364;HTU21D;54250;45.572;38.086;2022-08-25T01:17:52;21.87;51.99
67364;HTU21D;54250;45.572;38.086;2022-08-25T01:20:20;21.84;52.11
67364;HTU21D;54250;45.572;38.086;2022-08-25T01:22:48;21.78;52.10
67364;HTU21D;54250;45.572;38.086;2022-08-25T01:25:24;21.76;52.14
67364;HTU21D;54250;45.572;38.086;2022-08-25T01:27:54;21.75;52.46
67364;HTU21D;54250;45.572;38.086;2022-08-25T01:30:21;21.72;52.49
67364;HTU21D;54250;45.572;38.086;2022-08-25T01:32:47;21.60;52.36
67364;HTU21D;54250;45.572;38.086;2022-08-25T01:35:13;21.53;52.59
67364;HTU21D;54250;45.572;38.086;2022-08-25T01:37:40;21.53;52.79
67364;HTU21D;54250;45.572;38.086;2022-08-25T01:40:06;21.52;53.05
67364;HTU21D;54250;45.572;38.086;2022-08-25T01:42:53;21.53;53.05
67364;HTU21D;54250;45.572;38.086;2022-08-25T01:45:22;21.50;53.14
67364;HTU21D;54250;45.572;38.086;2022-08-25T01:47:48;21.48;53.51
67364;HTU21D;54250;45.572;38.086;2022-08-25T01:50:15;21.47;53.54
67364;HTU21D;54250;45.572;38.086;2022-08-25T01:55:35;21.48;53.76
67364;HTU21D;54250;45.572;38.086;2022-08-25T01:58:25;21.48;53.81
67364;HTU21D;54250;45.572;38.086;2022-08-25T02:00:54;21.43;54.10
67364;HTU21D;54250;45.572;38.086;2022-08-25T02:03:22;21.39;54.33
67364;HTU21D;54250;45.572;38.086;2022-08-25T02:05:50;21.37;54.15
67364;HTU21D;54250;45.572;38.086;2022-08-25T02:08:16;21.35;54.57
67364;HTU21D;54250;45.572;38.086;2022-08-25T02:10:43;21.31;54.78
67364;HTU21D;54250;45.572;38.086;2022-08-25T02:13:09;21.28;54.82
67364;HTU21D;54250;45.572;38.086;2022-08-25T02:15:40;21.24;55.21
67364;HTU21D;54250;45.572;38.086;2022-08-25T02:18:07;21.14;55.07
67364;HTU21D;54250;45.572;38.086;2022-08-25T02:20:33;21.03;55.22
67364;HTU21D;54250;45.572;38.086;2022-08-25T02:22:59;20.90;55.27
67364;HTU21D;54250;45.572;38.086;2022-08-25T02:25:25;20.85;55.36
67364;HTU21D;54250;45.572;38.086;2022-08-25T02:27:51;20.88;55.71
67364;HTU21D;54250;45.572;38.086;2022-08-25T02:30:17;20.86;55.70
67364;HTU21D;54250;45.572;38.086;2022-08-25T02:32:43;20.83;55.86
67364;HTU21D;54250;45.572;38.086;2022-08-25T02:35:09;20.77;55.94
67364;HTU21D;54250;45.572;38.086;2022-08-25T02:37:36;20.80;56.13
67364;HTU21D;54250;45.572;38.086;2022-08-25T02:40:03;20.72;56.36
67364;HTU21D;54250;45.572;38.086;2022-08-25T02:42:30;20.68;56.52
67364;HTU21D;54250;45.572;38.086;2022-08-25T02:44:56;20.65;56.54
67364;HTU21D;54250;45.572;38.086;2022-08-25T02:47:22;20.62;56.79
67364;HTU21D;54250;45.572;38.086;2022-08-25T02:49:49;20.68;56.81
67364;HTU21D;54250;45.572;38.086;2022-08-25T02:52:15;20.68;56.93
67364;HTU21D;54250;45.572;38.086;2022-08-25T02:54:41;20.69;57.28
67364;HTU21D;54250;45.572;38.086;2022-08-25T02:57:07;20.70;57.49
67364;HTU21D;54250;45.572;38.086;2022-08-25T02:59:37;20.68;57.30
67364;HTU21D;54250;45.572;38.086;2022-08-25T03:02:04;20.66;57.77
67364;HTU21D;54250;45.572;38.086;2022-08-25T03:04:31;20.69;57.69
67364;HTU21D;54250;45.572;38.086;2022-08-25T03:06:57;20.72;57.89
67364;HTU21D;54250;45.572;38.086;2022-08-25T03:09:25;20.71;57.92
67364;HTU21D;54250;45.572;38.086;2022-08-25T03:11:51;20.73;57.72
67364;HTU21D;54250;45.572;38.086;2022-08-25T03:14:18;20.84;57.74
67364;HTU21D;54250;45.572;38.086;2022-08-25T03:16:44;20.96;57.90
67364;HTU21D;54250;45.572;38.086;2022-08-25T03:19:10;21.11;57.64
67364;HTU21D;54250;45.572;38.086;2022-08-25T03:21:36;21.18;57.49
67364;HTU21D;54250;45.572;38.086;2022-08-25T03:24:04;21.21;57.45
67364;HTU21D;54250;45.572;38.086;2022-08-25T03:26:31;21.30;57.40
67364;HTU21D;54250;45.572;38.086;2022-08-25T03:29:16;21.37;57.19
67364;HTU21D;54250;45.572;38.086;2022-08-25T03:31:43;21.42;57.16
67364;HTU21D;54250;45.572;38.086;2022-08-25T03:34:11;21.51;56.99
67364;HTU21D;54250;45.572;38.086;2022-08-25T03:36:38;21.64;57.03
67364;HTU21D;54250;45.572;38.086;2022-08-25T03:39:04;21.79;56.77
67364;HTU21D;54250;45.572;38.086;2022-08-25T03:41:32;22.02;56.45
67364;HTU21D;54250;45.572;38.086;2022-08-25T03:43:59;22.31;55.98
67364;HTU21D;54250;45.572;38.086;2022-08-25T03:46:28;22.71;55.26
67364;HTU21D;54250;45.572;38.086;2022-08-25T03:48:55;23.05;54.55
67364;HTU21D;54250;45.572;38.086;2022-08-25T03:51:24;23.40;54.16
67364;HTU21D;54250;45.572;38.086;2022-08-25T03:53:51;23.73;53.46
67364;HTU21D;54250;45.572;38.086;2022-08-25T03:56:17;23.95;53.22
67364;HTU21D;54250;45.572;38.086;2022-08-25T03:58:44;24.50;52.29
67364;HTU21D;54250;45.572;38.086;2022-08-25T04:01:10;25.13;51.28
67364;HTU21D;54250;45.572;38.086;2022-08-25T04:03:37;25.48;50.46
67364;HTU21D;54250;45.572;38.086;2022-08-25T04:06:05;25.81;49.98
67364;HTU21D;54250;45.572;38.086;2022-08-25T04:08:31;26.34;49.16
67364;HTU21D;54250;45.572;38.086;2022-08-25T04:10:58;26.81;48.24
67364;HTU21D;54250;45.572;38.086;2022-08-25T04:13:24;27.06;47.63
67364;HTU21D;54250;45.572;38.086;2022-08-25T04:15:51;27.59;46.93
67364;HTU21D;54250;45.572;38.086;2022-08-25T04:18:17;28.13;45.79
67364;HTU21D;54250;45.572;38.086;2022-08-25T04:20:43;28.27;45.12
67364;HTU21D;54250;45.572;38.086;2022-08-25T04:23:09;28.39;44.91
67364;HTU21D;54250;45.572;38.086;2022-08-25T04:25:39;28.67;44.53
67364;HTU21D;54250;45.572;38.086;2022-08-25T04:28:09;29.13;43.80
67364;HTU21D;54250;45.572;38.086;2022-08-25T04:30:35;29.45;43.00
67364;HTU21D;54250;45.572;38.086;2022-08-25T04:33:01;29.71;42.52
67364;HTU21D;54250;45.572;38.086;2022-08-25T04:35:27;30.03;41.55
67364;HTU21D;54250;45.572;38.086;2022-08-25T04:37:53;30.00;41.31
67364;HTU21D;54250;45.572;38.086;2022-08-25T04:40:19;30.37;40.42
67364;HTU21D;54250;45.572;38.086;2022-08-25T04:42:45;30.20;40.53
67364;HTU21D;54250;45.572;38.086;2022-08-25T04:45:12;30.52;39.70
67364;HTU21D;54250;45.572;38.086;2022-08-25T04:47:38;30.53;39.70
67364;HTU21D;54250;45.572;38.086;2022-08-25T04:50:06;30.22;40.30
67364;HTU21D;54250;45.572;38.086;2022-08-25T04:52:32;29.48;41.74
67364;HTU21D;54250;45.572;38.086;2022-08-25T04:54:58;28.65;42.81
67364;HTU21D;54250;45.572;38.086;2022-08-25T04:57:25;28.13;43.94
67364;HTU21D;54250;45.572;38.086;2022-08-25T04:59:52;28.02;43.79
67364;HTU21D;54250;45.572;38.086;2022-08-25T05:02:19;28.68;42.87
67364;HTU21D;54250;45.572;38.086;2022-08-25T05:04:45;29.68;41.07
67364;HTU21D;54250;45.572;38.086;2022-08-25T05:07:11;30.36;39.82
67364;HTU21D;54250;45.572;38.086;2022-08-25T05:09:38;30.78;39.46
67364;HTU21D;54250;45.572;38.086;2022-08-25T05:12:04;31.35;38.27
67364;HTU21D;54250;45.572;38.086;2022-08-25T05:14:31;31.41;37.88
67364;HTU21D;54250;45.572;38.086;2022-08-25T05:16:58;31.52;37.91
67364;HTU21D;54250;45.572;38.086;2022-08-25T05:19:24;31.04;38.20
67364;HTU21D;54250;45.572;38.086;2022-08-25T05:21:51;30.59;38.97
67364;HTU21D;54250;45.572;38.086;2022-08-25T05:24:19;30.59;39.06
67364;HTU21D;54250;45.572;38.086;2022-08-25T05:26:45;31.07;38.35
67364;HTU21D;54250;45.572;38.086;2022-08-25T05:29:11;31.06;38.25
67364;HTU21D;54250;45.572;38.086;2022-08-25T05:31:37;30.53;38.98
67364;HTU21D;54250;45.572;38.086;2022-08-25T05:34:06;31.10;38.59
67364;HTU21D;54250;45.572;38.086;2022-08-25T05:36:32;31.63;37.69
67364;HTU21D;54250;45.572;38.086;2022-08-25T05:38:59;31.92;37.24
67364;HTU21D;54250;45.572;38.086;2022-08-25T05:41:28;31.58;37.47
67364;HTU21D;54250;45.572;38.086;2022-08-25T05:43:55;31.48;37.70
67364;HTU21D;54250;45.572;38.086;2022-08-25T05:46:21;31.60;37.56
67364;HTU21D;54250;45.572;38.086;2022-08-25T05:48:48;32.18;36.98
67364;HTU21D;54250;45.572;38.086;2022-08-25T05:51:15;32.23;36.47
67364;HTU21D;54250;45.572;38.086;2022-08-25T05:53:43;32.15;36.71
67364;HTU21D;54250;45.572;38.086;2022-08-25T05:56:10;32.26;36.73
67364;HTU21D;54250;45.572;38.086;2022-08-25T05:58:36;32.50;36.54
67364;HTU21D;54250;45.572;38.086;2022-08-25T06:01:03;32.71;36.24
67364;HTU21D;54250;45.572;38.086;2022-08-25T06:03:48;33.11;35.45
67364;HTU21D;54250;45.572;38.086;2022-08-25T06:06:15;33.44;35.01
67364;HTU21D;54250;45.572;38.086;2022-08-25T06:08:43;33.45;34.74
67364;HTU21D;54250;45.572;38.086;2022-08-25T06:11:10;33.65;34.90
67364;HTU21D;54250;45.572;38.086;2022-08-25T06:13:38;33.80;34.31
67364;HTU21D;54250;45.572;38.086;2022-08-25T06:16:04;33.34;35.44
67364;HTU21D;54250;45.572;38.086;2022-08-25T06:18:30;33.40;34.95
67364;HTU21D;54250;45.572;38.086;2022-08-25T06:20:57;33.48;34.85
67364;HTU21D;54250;45.572;38.086;2022-08-25T06:23:23;33.11;35.12
67364;HTU21D;54250;45.572;38.086;2022-08-25T06:25:50;32.81;35.78
67364;HTU21D;54250;45.572;38.086;2022-08-25T06:28:17;33.00;35.45
67364;HTU21D;54250;45.572;38.086;2022-08-25T06:30:44;33.04;35.55
67364;HTU21D;54250;45.572;38.086;2022-08-25T06:33:10;33.78;34.95
67364;HTU21D;54250;45.572;38.086;2022-08-25T06:35:40;34.36;33.93
67364;HTU21D;54250;45.572;38.086;2022-08-25T06:38:06;34.92;33.27
67364;HTU21D;54250;45.572;38.086;2022-08-25T06:40:33;34.86;32.91
67364;HTU21D;54250;45.572;38.086;2022-08-25T06:42:59;35.21;32.58
67364;HTU21D;54250;45.572;38.086;2022-08-25T06:45:25;35.09;32.32
67364;HTU21D;54250;45.572;38.086;2022-08-25T06:47:51;35.33;32.29
67364;HTU21D;54250;45.572;38.086;2022-08-25T06:50:17;36.15;31.49
67364;HTU21D;54250;45.572;38.086;2022-08-25T06:52:43;36.44;30.48
67364;HTU21D;54250;45.572;38.086;2022-08-25T06:55:10;36.23;30.88
67364;HTU21D;54250;45.572;38.086;2022-08-25T06:57:36;35.90;31.09
67364;HTU21D;54250;45.572;38.086;2022-08-25T07:00:06;36.01;31.37
67364;HTU21D;54250;45.572;38.086;2022-08-25T07:02:35;36.26;30.87
67364;HTU21D;54250;45.572;38.086;2022-08-25T07:05:04;36.51;30.64
67364;HTU21D;54250;45.572;38.086;2022-08-25T07:07:31;36.53;30.76
67364;HTU21D;54250;45.572;38.086;2022-08-25T07:09:57;36.87;30.67
67364;HTU21D;54250;45.572;38.086;2022-08-25T07:12:23;37.52;29.64
67364;HTU21D;54250;45.572;38.086;2022-08-25T07:14:50;37.76;29.52
67364;HTU21D;54250;45.572;38.086;2022-08-25T07:17:16;37.72;29.39
67364;HTU21D;54250;45.572;38.086;2022-08-25T07:19:42;37.82;29.65
67364;HTU21D;54250;45.572;38.086;2022-08-25T07:22:08;37.94;29.11
67364;HTU21D;54250;45.572;38.086;2022-08-25T07:24:34;37.99;29.71
67364;HTU21D;54250;45.572;38.086;2022-08-25T07:27:01;37.85;29.10
67364;HTU21D;54250;45.572;38.086;2022-08-25T07:29:27;37.88;29.39
67364;HTU21D;54250;45.572;38.086;2022-08-25T07:31:55;38.26;28.82
67364;HTU21D;54250;45.572;38.086;2022-08-25T07:34:21;38.54;28.74
67364;HTU21D;54250;45.572;38.086;2022-08-25T07:37:05;38.61;28.32
67364;HTU21D;54250;45.572;38.086;2022-08-25T07:39:32;38.25;28.13
67364;HTU21D;54250;45.572;38.086;2022-08-25T07:41:58;37.71;28.53
67364;HTU21D;54250;45.572;38.086;2022-08-25T07:44:26;37.35;28.97
67364;HTU21D;54250;45.572;38.086;2022-08-25T07:46:52;37.15;29.13
67364;HTU21D;54250;45.572;38.086;2022-08-25T07:49:20;36.99;29.62
67364;HTU21D;54250;45.572;38.086;2022-08-25T07:51:47;37.21;29.27
67364;HTU21D;54250;45.572;38.086;2022-08-25T07:54:13;36.89;29.37
67364;HTU21D;54250;45.572;38.086;2022-08-25T07:56:39;36.85;29.74
67364;HTU21D;54250;45.572;38.086;2022-08-25T07:59:08;36.55;30.04
67364;HTU21D;54250;45.572;38.086;2022-08-25T08:01:35;36.49;30.11
67364;HTU21D;54250;45.572;38.086;2022-08-25T08:04:02;37.15;29.80
67364;HTU21D;54250;45.572;38.086;2022-08-25T08:06:28;37.33;28.93
67364;HTU21D;54250;45.572;38.086;2022-08-25T08:08:55;36.93;29.61
67364;HTU21D;54250;45.572;38.086;2022-08-25T08:11:39;37.29;29.72
67364;HTU21D;54250;45.572;38.086;2022-08-25T08:14:09;37.61;29.25
67364;HTU21D;54250;45.572;38.086;2022-08-25T08:16:36;37.61;28.94
67364;HTU21D;54250;45.572;38.086;2022-08-25T08:19:03;37.33;29.10
67364;HTU21D;54250;45.572;38.086;2022-08-25T08:21:31;36.92;30.03
67364;HTU21D;54250;45.572;38.086;2022-08-25T08:23:59;36.83;30.05
67364;HTU21D;54250;45.572;38.086;2022-08-25T08:26:26;36.75;30.20
67364;HTU21D;54250;45.572;38.086;2022-08-25T08:28:53;37.13;29.55
67364;HTU21D;54250;45.572;38.086;2022-08-25T08:31:22;37.54;29.20
67364;HTU21D;54250;45.572;38.086;2022-08-25T08:33:49;37.44;29.21
67364;HTU21D;54250;45.572;38.086;2022-08-25T08:36:16;37.07;29.39
67364;HTU21D;54250;45.572;38.086;2022-08-25T08:38:44;36.88;30.50
67364;HTU21D;54250;45.572;38.086;2022-08-25T08:50:04;37.81;29.34
67364;HTU21D;54250;45.572;38.086;2022-08-25T08:52:45;37.56;29.16
67364;HTU21D;54250;45.572;38.086;2022-08-25T08:55:42;37.33;29.53
67364;HTU21D;54250;45.572;38.086;2022-08-25T08:58:20;37.60;29.42
67364;HTU21D;54250;45.572;38.086;2022-08-25T09:00:49;37.77;29.38
67364;HTU21D;54250;45.572;38.086;2022-08-25T09:03:46;38.15;28.87
67364;HTU21D;54250;45.572;38.086;2022-08-25T09:06:17;37.86;29.22
67364;HTU21D;54250;45.572;38.086;2022-08-25T09:08:46;37.79;29.71
67364;HTU21D;54250;45.572;38.086;2022-08-25T09:11:33;37.95;29.51
67364;HTU21D;54250;45.572;38.086;2022-08-25T09:14:10;37.84;29.26
67364;HTU21D;54250;45.572;38.086;2022-08-25T09:16:41;37.70;29.72
67364;HTU21D;54250;45.572;38.086;2022-08-25T09:19:29;37.67;30.06
67364;HTU21D;54250;45.572;38.086;2022-08-25T09:22:26;37.93;29.27
67364;HTU21D;54250;45.572;38.086;2022-08-25T09:30:18;38.64;29.21
67364;HTU21D;54250;45.572;38.086;2022-08-25T09:33:03;38.63;28.80
67364;HTU21D;54250;45.572;38.086;2022-08-25T09:35:32;38.17;29.09
67364;HTU21D;54250;45.572;38.086;2022-08-25T09:38:03;37.50;29.83
67364;HTU21D;54250;45.572;38.086;2022-08-25T09:40:32;36.93;30.01
67364;HTU21D;54250;45.572;38.086;2022-08-25T09:43:01;36.61;30.67
67364;HTU21D;54250;45.572;38.086;2022-08-25T09:48:02;36.78;30.45
67364;HTU21D;54250;45.572;38.086;2022-08-25T09:50:49;36.43;31.27
67364;HTU21D;54250;45.572;38.086;2022-08-25T09:53:16;35.83;31.80
67364;HTU21D;54250;45.572;38.086;2022-08-25T09:55:43;35.24;32.57
67364;HTU21D;54250;45.572;38.086;2022-08-25T09:58:29;34.76;32.96
67364;HTU21D;54250;45.572;38.086;2022-08-25T10:03:30;34.19;34.06
67364;HTU21D;54250;45.572;38.086;2022-08-25T10:06:01;34.01;34.47
67364;HTU21D;54250;45.572;38.086;2022-08-25T10:08:53;34.16;34.02
67364;HTU21D;54250;45.572;38.086;2022-08-25T10:11:39;34.22;34.12
67364;HTU21D;54250;45.572;38.086;2022-08-25T10:14:14;34.34;33.93
67364;HTU21D;54250;45.572;38.086;2022-08-25T10:16:41;34.45;33.56
67364;HTU21D;54250;45.572;38.086;2022-08-25T10:19:22;34.51;32.66
67364;HTU21D;54250;45.572;38.086;2022-08-25T10:22:23;34.59;32.68
67364;HTU21D;54250;45.572;38.086;2022-08-25T10:24:50;34.57;32.56
67364;HTU21D;54250;45.572;38.086;2022-08-25T10:36:04;34.36;33.20
67364;HTU21D;54250;45.572;38.086;2022-08-25T10:38:42;34.45;33.29
67364;HTU21D;54250;45.572;38.086;2022-08-25T10:44:12;34.39;33.51
67364;HTU21D;54250;45.572;38.086;2022-08-25T10:49:52;34.74;33.07
67364;HTU21D;54250;45.572;38.086;2022-08-25T10:52:36;34.74;32.74
67364;HTU21D;54250;45.572;38.086;2022-08-25T10:55:15;34.75;32.91
67364;HTU21D;54250;45.572;38.086;2022-08-25T10:57:54;34.79;31.75
67364;HTU21D;54250;45.572;38.086;2022-08-25T11:00:26;34.75;32.12
67364;HTU21D;54250;45.572;38.086;2022-08-25T11:05:53;34.59;32.14
67364;HTU21D;54250;45.572;38.086;2022-08-25T11:08:46;34.44;32.43
67364;HTU21D;54250;45.572;38.086;2022-08-25T11:11:23;34.29;32.14
67364;HTU21D;54250;45.572;38.086;2022-08-25T11:14:01;34.20;31.98
67364;HTU21D;54250;45.572;38.086;2022-08-25T11:19:41;34.42;32.38
67364;HTU21D;54250;45.572;38.086;2022-08-25T11:25:50;34.77;32.86
67364;HTU21D;54250;45.572;38.086;2022-08-25T11:28:30;34.77;32.61
67364;HTU21D;54250;45.572;38.086;2022-08-25T11:31:00;34.55;32.51
67364;HTU21D;54250;45.572;38.086;2022-08-25T11:33:28;34.38;32.81
67364;HTU21D;54250;45.572;38.086;2022-08-25T11:36:12;34.35;32.60
67364;HTU21D;54250;45.572;38.086;2022-08-25T11:49:47;33.90;33.75
67364;HTU21D;54250;45.572;38.086;2022-08-25T11:57:43;33.58;34.47
67364;HTU21D;54250;45.572;38.086;2022-08-25T12:02:46;33.52;34.81
67364;HTU21D;54250;45.572;38.086;2022-08-25T12:13:37;33.38;35.40
67364;HTU21D;54250;45.572;38.086;2022-08-25T12:16:04;33.40;35.15
67364;HTU21D;54250;45.572;38.086;2022-08-25T12:23:42;33.49;35.40
67364;HTU21D;54250;45.572;38.086;2022-08-25T12:26:24;33.52;34.92
67364;HTU21D;54250;45.572;38.086;2022-08-25T12:37:17;33.31;36.92
67364;HTU21D;54250;45.572;38.086;2022-08-25T12:42:31;33.16;38.17
67364;HTU21D;54250;45.572;38.086;2022-08-25T12:47:52;33.00;38.20
67364;HTU21D;54250;45.572;38.086;2022-08-25T12:50:37;32.91;38.19
67364;HTU21D;54250;45.572;38.086;2022-08-25T12:53:34;32.77;38.64
67364;HTU21D;54250;45.572;38.086;2022-08-25T13:02:05;32.16;39.10
67364;HTU21D;54250;45.572;38.086;2022-08-25T13:07:29;31.86;39.23
67364;HTU21D;54250;45.572;38.086;2022-08-25T13:12:53;31.57;39.39
67364;HTU21D;54250;45.572;38.086;2022-08-25T13:20:48;31.43;38.90
67364;HTU21D;54250;45.572;38.086;2022-08-25T13:23:21;31.31;38.94
67364;HTU21D;54250;45.572;38.086;2022-08-25T13:25:51;31.23;39.32
67364;HTU21D;54250;45.572;38.086;2022-08-25T13:28:39;31.12;39.10
67364;HTU21D;54250;45.572;38.086;2022-08-25T13:31:07;31.10;39.04
67364;HTU21D;54250;45.572;38.086;2022-08-25T13:33:34;31.04;38.88
67364;HTU21D;54250;45.572;38.086;2022-08-25T13:36:01;31.02;38.61
67364;HTU21D;54250;45.572;38.086;2022-08-25T13:38:47;31.04;38.53
67364;HTU21D;54250;45.572;38.086;2022-08-25T13:41:23;31.02;38.24
67364;HTU21D;54250;45.572;38.086;2022-08-25T13:43:50;31.07;37.72
67364;HTU21D;54250;45.572;38.086;2022-08-25T13:46:21;31.11;37.29
67364;HTU21D;54250;45.572;38.086;2022-08-25T13:48:47;31.15;36.97
67364;HTU21D;54250;45.572;38.086;2022-08-25T13:51:25;31.22;36.56
67364;HTU21D;54250;45.572;38.086;2022-08-25T13:53:54;31.20;36.59
67364;HTU21D;54250;45.572;38.086;2022-08-25T13:56:35;31.22;36.14
67364;HTU21D;54250;45.572;38.086;2022-08-25T13:59:04;31.22;35.38
67364;HTU21D;54250;45.572;38.086;2022-08-25T14:01:43;31.25;35.48
67364;HTU21D;54250;45.572;38.086;2022-08-25T14:04:26;31.19;35.46
67364;HTU21D;54250;45.572;38.086;2022-08-25T14:12:38;31.48;33.91
67364;HTU21D;54250;45.572;38.086;2022-08-25T14:17:57;31.60;33.58
67364;HTU21D;54250;45.572;38.086;2022-08-25T14:20:26;31.57;33.44
67364;HTU21D;54250;45.572;38.086;2022-08-25T14:22:56;31.56;33.18
67364;HTU21D;54250;45.572;38.086;2022-08-25T14:25:23;31.51;33.35
67364;HTU21D;54250;45.572;38.086;2022-08-25T14:27:58;31.41;33.63
67364;HTU21D;54250;45.572;38.086;2022-08-25T14:30:26;31.29;33.79
67364;HTU21D;54250;45.572;38.086;2022-08-25T14:32:52;31.21;33.89
67364;HTU21D;54250;45.572;38.086;2022-08-25T14:35:19;31.15;33.87
67364;HTU21D;54250;45.572;38.086;2022-08-25T14:37:46;31.09;33.89
67364;HTU21D;54250;45.572;38.086;2022-08-25T14:40:14;31.02;34.00
67364;HTU21D;54250;45.572;38.086;2022-08-25T14:42:46;31.00;34.01
67364;HTU21D;54250;45.572;38.086;2022-08-25T14:45:16;31.04;33.58
67364;HTU21D;54250;45.572;38.086;2022-08-25T14:47:44;31.12;33.45
67364;HTU21D;54250;45.572;38.086;2022-08-25T14:50:14;31.10;33.66
67364;HTU21D;54250;45.572;38.086;2022-08-25T14:52:40;31.05;33.37
67364;HTU21D;54250;45.572;38.086;2022-08-25T14:55:08;31.00;33.45
67364;HTU21D;54250;45.572;38.086;2022-08-25T14:57:34;31.00;33.39
67364;HTU21D;54250;45.572;38.086;2022-08-25T15:00:02;30.97;33.53
67364;HTU21D;54250;45.572;38.086;2022-08-25T15:02:29;30.90;33.76
67364;HTU21D;54250;45.572;38.086;2022-08-25T15:04:59;30.84;33.80
67364;HTU21D;54250;45.572;38.086;2022-08-25T15:07:31;30.71;34.12
67364;HTU21D;54250;45.572;38.086;2022-08-25T15:10:16;30.55;34.63
67364;HTU21D;54250;45.572;38.086;2022-08-25T15:12:43;30.44;34.81
67364;HTU21D;54250;45.572;38.086;2022-08-25T15:15:09;30.32;35.11
67364;HTU21D;54250;45.572;38.086;2022-08-25T15:17:38;30.19;35.47
67364;HTU21D;54250;45.572;38.086;2022-08-25T15:20:07;30.05;35.55
67364;HTU21D;54250;45.572;38.086;2022-08-25T15:22:33;29.96;35.36
67364;HTU21D;54250;45.572;38.086;2022-08-25T15:24:59;29.88;35.46
67364;HTU21D;54250;45.572;38.086;2022-08-25T15:27:25;29.78;35.52
67364;HTU21D;54250;45.572;38.086;2022-08-25T15:29:51;29.74;35.50
67364;HTU21D;54250;45.572;38.086;2022-08-25T15:32:17;29.72;35.44
67364;HTU21D;54250;45.572;38.086;2022-08-25T15:34:44;29.70;35.47
67364;HTU21D;54250;45.572;38.086;2022-08-25T15:37:13;29.59;35.40
67364;HTU21D;54250;45.572;38.086;2022-08-25T15:39:41;29.59;35.40
67364;HTU21D;54250;45.572;38.086;2022-08-25T15:42:09;29.58;35.30
67364;HTU21D;54250;45.572;38.086;2022-08-25T15:44:40;29.59;35.21
67364;HTU21D;54250;45.572;38.086;2022-08-25T15:47:07;29.57;35.06
67364;HTU21D;54250;45.572;38.086;2022-08-25T15:49:34;29.57;35.12
67364;HTU21D;54250;45.572;38.086;2022-08-25T15:52:01;29.58;34.97
67364;HTU21D;54250;45.572;38.086;2022-08-25T15:54:28;29.59;34.95
67364;HTU21D;54250;45.572;38.086;2022-08-25T15:56:55;29.53;34.89
67364;HTU21D;54250;45.572;38.086;2022-08-25T15:59:22;29.54;34.75
67364;HTU21D;54250;45.572;38.086;2022-08-25T16:01:49;29.58;34.66
67364;HTU21D;54250;45.572;38.086;2022-08-25T16:04:19;29.58;34.60
67364;HTU21D;54250;45.572;38.086;2022-08-25T16:06:45;29.57;34.73
67364;HTU21D;54250;45.572;38.086;2022-08-25T16:09:11;29.44;35.02
67364;HTU21D;54250;45.572;38.086;2022-08-25T16:11:37;29.37;35.13
67364;HTU21D;54250;45.572;38.086;2022-08-25T16:14:04;29.29;35.50
67364;HTU21D;54250;45.572;38.086;2022-08-25T16:16:31;29.17;35.44
67364;HTU21D;54250;45.572;38.086;2022-08-25T16:18:57;29.14;35.23
67364;HTU21D;54250;45.572;38.086;2022-08-25T16:21:26;29.21;35.11
67364;HTU21D;54250;45.572;38.086;2022-08-25T16:23:54;29.23;35.08
67364;HTU21D;54250;45.572;38.086;2022-08-25T16:26:21;29.20;35.16
67364;HTU21D;54250;45.572;38.086;2022-08-25T16:28:47;29.24;35.02
67364;HTU21D;54250;45.572;38.086;2022-08-25T16:31:15;29.38;34.88
67364;HTU21D;54250;45.572;38.086;2022-08-25T16:33:42;29.31;35.06
67364;HTU21D;54250;45.572;38.086;2022-08-25T16:36:12;29.26;35.18
67364;HTU21D;54250;45.572;38.086;2022-08-25T16:38:39;29.23;35.37
67364;HTU21D;54250;45.572;38.086;2022-08-25T16:41:14;29.23;35.53
67364;HTU21D;54250;45.572;38.086;2022-08-25T16:43:41;29.14;35.83
67364;HTU21D;54250;45.572;38.086;2022-08-25T16:46:10;28.99;36.21
67364;HTU21D;54250;45.572;38.086;2022-08-25T16:48:37;28.85;36.47
67364;HTU21D;54250;45.572;38.086;2022-08-25T16:51:13;28.73;36.64
67364;HTU21D;54250;45.572;38.086;2022-08-25T16:53:39;28.58;36.83
67364;HTU21D;54250;45.572;38.086;2022-08-25T16:56:25;28.52;37.13
67364;HTU21D;54250;45.572;38.086;2022-08-25T16:58:53;28.46;37.15
67364;HTU21D;54250;45.572;38.086;2022-08-25T17:01:20;28.42;37.17
67364;HTU21D;54250;45.572;38.086;2022-08-25T17:03:49;28.42;37.08
67364;HTU21D;54250;45.572;38.086;2022-08-25T17:06:16;28.41;37.08
67364;HTU21D;54250;45.572;38.086;2022-08-25T17:08:42;28.37;37.08
67364;HTU21D;54250;45.572;38.086;2022-08-25T17:11:18;28.39;37.05
67364;HTU21D;54250;45.572;38.086;2022-08-25T17:13:48;28.34;37.08
67364;HTU21D;54250;45.572;38.086;2022-08-25T17:16:15;28.27;37.37